Time;durP1;ratioP1;P1;durP2;ratioP2;P2;SDS_P1;SDS_P2;PMS_P1;PMS_P2;Temp;Humidity;BMP_temperature;BMP_pressure;BME280_temperature;BME280_humidity;BME280_pressure;Samples;Min_cycle;Max_cycle;Signal;HPM_P1;HPM_P2
2023/12/21 00:01:53;;;;;;;123.95;83.68;;;;;;;;;;5010314;28;20037;-75
2023/12/21 00:04:19;;;;;;;125.88;84.10;;;;;;;;;;5009763;28;20026;-75
2023/12/21 00:06:45;;;;;;;118.88;81.97;;;;;;;;;;5009907;28;20022;-72
2023/12/21 00:09:11;;;;;;;112.53;79.05;;;;;;;;;;5009700;28;20475;-73
2023/12/21 00:11:37;;;;;;;115.35;79.53;;;;;;;;;;5008299;28;20032;-75
2023/12/21 00:14:03;;;;;;;120.90;81.45;;;;;;;;;;5010025;28;20062;-75
2023/12/21 00:16:30;;;;;;;113.00;80.32;;;;;;;;;;5008675;28;20382;-75
2023/12/21 00:18:55;;;;;;;111.47;78.80;;;;;;;;;;5009807;28;20022;-74
2023/12/21 00:21:21;;;;;;;125.53;79.50;;;;;;;;;;5009498;28;20048;-74
2023/12/21 00:23:47;;;;;;;116.32;78.97;;;;;;;;;;5010422;28;20054;-73
2023/12/21 00:26:13;;;;;;;108.40;75.57;;;;;;;;;;5013709;28;20030;-73
2023/12/21 00:28:39;;;;;;;108.40;75.25;;;;;;;;;;5013377;28;20029;-74
2023/12/21 00:31:05;;;;;;;108.28;74.65;;;;;;;;;;5013077;28;20101;-74
2023/12/21 00:33:31;;;;;;;103.30;73.55;;;;;;;;;;5013096;28;20112;-74
2023/12/21 00:35:57;;;;;;;104.90;75.05;;;;;;;;;;5013257;28;20029;-71
2023/12/21 00:38:23;;;;;;;107.05;73.85;;;;;;;;;;5012855;28;20018;-73
2023/12/21 00:40:49;;;;;;;109.25;72.78;;;;;;;;;;5012771;28;20109;-75
2023/12/21 00:43:15;;;;;;;106.10;72.10;;;;;;;;;;5011888;28;20108;-74
2023/12/21 00:45:41;;;;;;;105.18;70.47;;;;;;;;;;5013083;28;20305;-74
2023/12/21 00:48:07;;;;;;;106.03;69.30;;;;;;;;;;5013110;28;20046;-74
2023/12/21 00:50:33;;;;;;;99.20;68.40;;;;;;;;;;5012717;28;20105;-74
2023/12/21 00:52:59;;;;;;;99.45;67.68;;;;;;;;;;5012985;28;20467;-72
2023/12/21 00:55:25;;;;;;;96.13;66.13;;;;;;;;;;5013458;28;20037;-74
2023/12/21 00:57:51;;;;;;;96.32;67.07;;;;;;;;;;5013505;28;20113;-74
2023/12/21 01:00:17;;;;;;;102.15;67.60;;;;;;;;;;5012022;28;20488;-74
2023/12/21 01:02:46;;;;;;;100.35;67.57;;;;;;;;;;5013173;28;20163;-74
2023/12/21 01:05:12;;;;;;;96.82;66.72;;;;;;;;;;5014262;28;20034;-73
2023/12/21 01:07:38;;;;;;;96.30;64.68;;;;;;;;;;5013520;28;20051;-75
2023/12/21 01:10:05;;;;;;;101.22;66.28;;;;;;;;;;5013733;28;20065;-74
2023/12/21 01:12:32;;;;;;;95.85;63.38;;;;;;;;;;5013614;28;20021;-74
2023/12/21 01:15:00;;;;;;;89.35;62.80;;;;;;;;;;5012807;28;20072;-71
2023/12/21 01:17:26;;;;;;;92.65;64.60;;;;;;;;;;5012257;28;20037;-71
2023/12/21 01:19:52;;;;;;;89.25;61.60;;;;;;;;;;5012123;28;20022;-73
2023/12/21 01:22:18;;;;;;;94.15;62.22;;;;;;;;;;5012118;28;20048;-73
2023/12/21 01:24:44;;;;;;;89.85;61.35;;;;;;;;;;5012791;28;20025;-72
2023/12/21 01:27:09;;;;;;;84.82;60.03;;;;;;;;;;5012129;28;20390;-74
2023/12/21 01:29:35;;;;;;;87.80;61.00;;;;;;;;;;5011716;28;20113;-73
2023/12/21 01:32:01;;;;;;;90.15;58.58;;;;;;;;;;5012317;28;20022;-74
2023/12/21 01:34:27;;;;;;;87.15;57.35;;;;;;;;;;5012034;28;20030;-74
2023/12/21 01:36:53;;;;;;;82.35;56.60;;;;;;;;;;5011973;28;20026;-74
2023/12/21 01:39:19;;;;;;;81.55;56.50;;;;;;;;;;5011063;28;20202;-74
2023/12/21 01:41:45;;;;;;;81.53;56.30;;;;;;;;;;5012825;28;20562;-74
2023/12/21 01:44:11;;;;;;;83.30;58.08;;;;;;;;;;5012645;28;20049;-74
2023/12/21 01:46:37;;;;;;;84.10;57.28;;;;;;;;;;5011909;28;20454;-74
2023/12/21 01:49:04;;;;;;;78.15;54.70;;;;;;;;;;5011345;28;20030;-74
2023/12/21 01:51:30;;;;;;;80.40;53.95;;;;;;;;;;5009842;28;20467;-70
2023/12/21 01:53:56;;;;;;;76.95;53.67;;;;;;;;;;5011824;28;20101;-72
2023/12/21 01:56:22;;;;;;;79.70;52.22;;;;;;;;;;5011661;28;20025;-73
2023/12/21 01:58:49;;;;;;;81.00;53.90;;;;;;;;;;5011684;28;20026;-73
2023/12/21 02:01:19;;;;;;;82.43;52.13;;;;;;;;;;5011531;28;20101;-74
2023/12/21 02:03:45;;;;;;;72.78;50.75;;;;;;;;;;5011914;28;20404;-75
2023/12/21 02:06:11;;;;;;;74.28;51.08;;;;;;;;;;5011713;28;20030;-74
2023/12/21 02:08:37;;;;;;;78.85;52.58;;;;;;;;;;5011548;28;20037;-74
2023/12/21 02:11:10;;;;;;;71.65;50.35;;;;;;;;;;5011449;28;20048;-76
2023/12/21 02:13:36;;;;;;;71.88;49.78;;;;;;;;;;5011528;28;20032;-76
2023/12/21 02:16:05;;;;;;;77.32;50.50;;;;;;;;;;5011711;28;20650;-76
2023/12/21 02:18:31;;;;;;;72.38;46.92;;;;;;;;;;5010011;28;20137;-73
2023/12/21 02:20:58;;;;;;;70.28;47.83;;;;;;;;;;5011086;28;20030;-74
2023/12/21 02:23:26;;;;;;;68.13;46.72;;;;;;;;;;5009749;28;20030;-74
2023/12/21 02:25:52;;;;;;;67.18;46.67;;;;;;;;;;5011723;28;20446;-75
2023/12/21 02:28:18;;;;;;;69.57;47.28;;;;;;;;;;5011210;28;20045;-75
2023/12/21 02:30:46;;;;;;;66.55;47.30;;;;;;;;;;5010801;28;20080;-75
2023/12/21 02:33:12;;;;;;;68.32;46.30;;;;;;;;;;5011129;28;20018;-74
2023/12/21 02:35:38;;;;;;;65.90;44.97;;;;;;;;;;5011018;28;20033;-74
2023/12/21 02:38:04;;;;;;;69.30;44.47;;;;;;;;;;5009758;28;20025;-74
2023/12/21 02:40:30;;;;;;;66.18;45.33;;;;;;;;;;5010980;28;20432;-74
2023/12/21 02:42:56;;;;;;;62.78;41.80;;;;;;;;;;5011105;28;20025;-74
2023/12/21 02:45:22;;;;;;;64.95;42.30;;;;;;;;;;5011320;28;20022;-75
2023/12/21 02:47:48;;;;;;;60.95;42.80;;;;;;;;;;5010235;28;20033;-75
2023/12/21 02:50:14;;;;;;;56.50;41.15;;;;;;;;;;5010847;28;20478;-74
2023/12/21 02:52:40;;;;;;;63.30;42.90;;;;;;;;;;5010546;28;20029;-75
2023/12/21 02:55:06;;;;;;;60.75;40.95;;;;;;;;;;5010854;28;20103;-75
2023/12/21 02:57:32;;;;;;;58.03;39.88;;;;;;;;;;5009477;28;20120;-75
2023/12/21 02:59:59;;;;;;;63.05;41.22;;;;;;;;;;5009385;28;20025;-75
2023/12/21 03:02:25;;;;;;;56.53;38.95;;;;;;;;;;5011043;28;20033;-76
2023/12/21 03:04:51;;;;;;;60.45;39.85;;;;;;;;;;5010815;28;20045;-73
2023/12/21 03:07:17;;;;;;;58.10;39.67;;;;;;;;;;5010855;28;20057;-75
2023/12/21 03:09:43;;;;;;;54.83;38.45;;;;;;;;;;5010370;28;20432;-74
2023/12/21 03:12:09;;;;;;;54.40;37.97;;;;;;;;;;5009196;28;20032;-74
2023/12/21 03:14:35;;;;;;;53.22;37.47;;;;;;;;;;5010760;28;20018;-73
2023/12/21 03:17:01;;;;;;;50.70;37.63;;;;;;;;;;5010527;28;20068;-73
2023/12/21 03:19:27;;;;;;;53.65;36.55;;;;;;;;;;5010306;28;20101;-73
2023/12/21 03:21:53;;;;;;;53.20;36.90;;;;;;;;;;5010648;28;20054;-73
2023/12/21 03:24:19;;;;;;;55.53;36.17;;;;;;;;;;5010799;28;20052;-74
2023/12/21 03:26:46;;;;;;;50.00;34.58;;;;;;;;;;5011123;28;20029;-73
2023/12/21 03:29:12;;;;;;;53.10;36.20;;;;;;;;;;5010613;28;20455;-75
2023/12/21 03:31:38;;;;;;;54.15;35.70;;;;;;;;;;5010967;28;20030;-73
2023/12/21 03:34:04;;;;;;;56.58;34.42;;;;;;;;;;5016125;28;20101;-73
2023/12/21 03:36:31;;;;;;;50.65;34.00;;;;;;;;;;5010147;28;20052;-72
2023/12/21 03:38:59;;;;;;;54.40;34.95;;;;;;;;;;5010346;28;20038;-71
2023/12/21 03:41:25;;;;;;;47.25;32.42;;;;;;;;;;5007726;28;20041;-72
2023/12/21 03:43:51;;;;;;;48.15;32.38;;;;;;;;;;5010280;28;20499;-72
2023/12/21 03:46:17;;;;;;;49.10;32.47;;;;;;;;;;5012986;28;20033;-72
2023/12/21 03:48:43;;;;;;;47.35;32.35;;;;;;;;;;5013137;28;20074;-72
2023/12/21 03:51:09;;;;;;;44.60;30.58;;;;;;;;;;5015547;28;20030;-71
2023/12/21 03:53:35;;;;;;;43.28;30.67;;;;;;;;;;5016793;28;20101;-71
2023/12/21 03:56:01;;;;;;;42.47;30.90;;;;;;;;;;5015706;28;20022;-72
2023/12/21 03:58:27;;;;;;;44.50;31.38;;;;;;;;;;5015279;28;20891;-70
2023/12/21 04:00:53;;;;;;;53.53;30.63;;;;;;;;;;5017492;28;20094;-72
2023/12/21 04:03:19;;;;;;;43.47;28.75;;;;;;;;;;5015351;28;20060;-73
2023/12/21 04:05:45;;;;;;;50.63;30.25;;;;;;;;;;5014631;28;20058;-73
2023/12/21 04:08:11;;;;;;;47.45;29.30;;;;;;;;;;5013725;28;20033;-74
2023/12/21 04:10:37;;;;;;;49.55;29.40;;;;;;;;;;5013370;28;20168;-73
2023/12/21 04:13:03;;;;;;;38.75;27.58;;;;;;;;;;5013503;28;20032;-73
2023/12/21 04:15:29;;;;;;;45.28;28.52;;;;;;;;;;5013870;28;20076;-73
2023/12/21 04:17:55;;;;;;;53.95;28.17;;;;;;;;;;5013425;28;20025;-73
2023/12/21 04:20:21;;;;;;;44.17;28.45;;;;;;;;;;5013446;28;20022;-72
2023/12/21 04:22:47;;;;;;;42.50;28.17;;;;;;;;;;5013381;28;20430;-71
2023/12/21 04:25:13;;;;;;;49.33;27.83;;;;;;;;;;5013835;28;20026;-71
2023/12/21 04:27:39;;;;;;;47.03;27.40;;;;;;;;;;5013596;28;20026;-70
2023/12/21 04:30:06;;;;;;;40.60;27.30;;;;;;;;;;5013224;28;20434;-70
2023/12/21 04:32:31;;;;;;;45.50;27.25;;;;;;;;;;5013326;28;20050;-71
2023/12/21 04:34:57;;;;;;;38.60;25.10;;;;;;;;;;5014146;28;20430;-70
2023/12/21 04:37:23;;;;;;;37.65;26.27;;;;;;;;;;5014596;28;20020;-71
2023/12/21 04:39:49;;;;;;;43.53;25.70;;;;;;;;;;5014558;28;20549;-71
2023/12/21 04:42:15;;;;;;;40.30;24.88;;;;;;;;;;5014796;28;20030;-71
2023/12/21 04:44:41;;;;;;;39.95;24.58;;;;;;;;;;5014619;28;20056;-71
2023/12/21 04:47:09;;;;;;;48.28;24.95;;;;;;;;;;5014363;28;20442;-70
2023/12/21 04:49:35;;;;;;;36.22;23.38;;;;;;;;;;5014495;28;20022;-71
2023/12/21 04:52:02;;;;;;;39.85;23.73;;;;;;;;;;5014413;28;20080;-71
2023/12/21 04:54:28;;;;;;;39.05;24.58;;;;;;;;;;5014807;28;20032;-71
2023/12/21 04:56:54;;;;;;;37.67;23.30;;;;;;;;;;5014234;28;20060;-72
2023/12/21 04:59:20;;;;;;;35.78;23.88;;;;;;;;;;5014253;28;20073;-71
2023/12/21 05:01:50;;;;;;;34.33;23.73;;;;;;;;;;5014319;28;20487;-71
2023/12/21 05:04:16;;;;;;;34.33;22.65;;;;;;;;;;5014366;28;20022;-71
2023/12/21 05:06:42;;;;;;;34.72;23.08;;;;;;;;;;5014409;28;20065;-72
2023/12/21 05:09:08;;;;;;;32.47;22.35;;;;;;;;;;5014062;28;20065;-71
2023/12/21 05:11:34;;;;;;;37.13;22.73;;;;;;;;;;5013206;28;20034;-71
2023/12/21 05:14:00;;;;;;;33.60;23.00;;;;;;;;;;5014998;28;20018;-72
2023/12/21 05:16:26;;;;;;;36.35;22.20;;;;;;;;;;5013982;28;20113;-72
2023/12/21 05:18:52;;;;;;;31.88;21.73;;;;;;;;;;5012954;28;20022;-72
2023/12/21 05:21:18;;;;;;;35.25;21.08;;;;;;;;;;5012876;28;20026;-73
2023/12/21 05:23:43;;;;;;;31.15;20.73;;;;;;;;;;5017308;28;20033;-71
2023/12/21 05:26:11;;;;;;;41.75;20.60;;;;;;;;;;5014186;28;20510;-71
2023/12/21 05:28:38;;;;;;;32.78;20.50;;;;;;;;;;5014723;28;20037;-71
2023/12/21 05:31:05;;;;;;;30.45;20.92;;;;;;;;;;5014209;28;20029;-71
2023/12/21 05:33:31;;;;;;;36.53;20.90;;;;;;;;;;5012982;28;20075;-70
2023/12/21 05:35:57;;;;;;;27.33;19.23;;;;;;;;;;5014337;28;20026;-71
2023/12/21 05:38:23;;;;;;;30.90;19.25;;;;;;;;;;5013585;28;20399;-71
2023/12/21 05:40:48;;;;;;;31.25;18.77;;;;;;;;;;5013464;28;20037;-73
2023/12/21 05:43:14;;;;;;;32.75;19.50;;;;;;;;;;5013391;28;20100;-70
2023/12/21 05:45:40;;;;;;;28.73;18.23;;;;;;;;;;5013527;28;20034;-70
2023/12/21 05:48:07;;;;;;;34.30;19.45;;;;;;;;;;5013020;28;20045;-69
2023/12/21 05:50:33;;;;;;;35.10;17.98;;;;;;;;;;5013270;28;20047;-70
2023/12/21 05:52:59;;;;;;;32.58;17.83;;;;;;;;;;5013459;28;20018;-70
2023/12/21 05:55:24;;;;;;;31.10;18.02;;;;;;;;;;5013225;28;20068;-69
2023/12/21 05:57:51;;;;;;;32.08;18.40;;;;;;;;;;5012889;28;20022;-69
2023/12/21 06:00:17;;;;;;;26.08;16.85;;;;;;;;;;5012904;28;20061;-69
2023/12/21 06:02:43;;;;;;;29.70;17.98;;;;;;;;;;5013433;28;20511;-69
2023/12/21 06:05:09;;;;;;;29.52;17.38;;;;;;;;;;5011898;28;20064;-71
2023/12/21 06:07:35;;;;;;;29.58;17.38;;;;;;;;;;5013084;28;20030;-72
2023/12/21 06:10:01;;;;;;;30.77;17.38;;;;;;;;;;5012801;28;20030;-71
2023/12/21 06:12:27;;;;;;;30.60;17.52;;;;;;;;;;5013059;28;20033;-72
2023/12/21 06:14:55;;;;;;;26.90;16.00;;;;;;;;;;5012688;28;20026;-71
2023/12/21 06:17:21;;;;;;;28.83;16.45;;;;;;;;;;5012665;28;20029;-71
2023/12/21 06:19:47;;;;;;;27.88;17.00;;;;;;;;;;5012373;28;20611;-72
2023/12/21 06:22:12;;;;;;;24.27;16.25;;;;;;;;;;5012772;28;20058;-73
2023/12/21 06:24:39;;;;;;;23.85;15.23;;;;;;;;;;5013222;28;20040;-74
2023/12/21 06:27:05;;;;;;;25.02;15.00;;;;;;;;;;5013524;28;20021;-74
2023/12/21 06:29:31;;;;;;;24.83;15.10;;;;;;;;;;5012770;28;20113;-71
2023/12/21 06:31:57;;;;;;;30.73;15.32;;;;;;;;;;5013028;28;20030;-71
2023/12/21 06:34:25;;;;;;;22.50;14.18;;;;;;;;;;5011919;28;20026;-71
2023/12/21 06:36:51;;;;;;;27.58;15.13;;;;;;;;;;5012797;28;20018;-71
2023/12/21 06:39:17;;;;;;;27.42;15.52;;;;;;;;;;5012326;28;20044;-72
2023/12/21 06:41:44;;;;;;;32.45;14.40;;;;;;;;;;5013201;28;20533;-70
2023/12/21 06:44:10;;;;;;;31.02;14.68;;;;;;;;;;5013174;28;20050;-70
2023/12/21 06:46:36;;;;;;;21.88;14.35;;;;;;;;;;5012916;28;20490;-71
2023/12/21 06:49:02;;;;;;;29.23;13.88;;;;;;;;;;5012542;28;20046;-69
2023/12/21 06:51:28;;;;;;;36.10;13.38;;;;;;;;;;5011910;28;20028;-68
2023/12/21 06:53:54;;;;;;;27.92;12.48;;;;;;;;;;5012336;28;20026;-68
2023/12/21 06:56:20;;;;;;;19.38;11.23;;;;;;;;;;5010948;28;20387;-69
2023/12/21 06:58:46;;;;;;;18.33;12.10;;;;;;;;;;5012174;28;20097;-69
2023/12/21 07:01:12;;;;;;;26.15;12.85;;;;;;;;;;5011007;28;20044;-69
2023/12/21 07:03:38;;;;;;;23.92;12.32;;;;;;;;;;5011611;28;20033;-70
2023/12/21 07:06:04;;;;;;;28.10;12.55;;;;;;;;;;5011965;28;20029;-70
2023/12/21 07:08:30;;;;;;;20.83;11.48;;;20.50;75.30;;;;;;5011722;28;20129;-67
2023/12/21 07:10:56;;;;;;;33.92;12.38;;;20.20;76.20;;;;;;5011647;28;20546;-69
2023/12/21 07:13:21;;;;;;;29.08;11.45;;;20.10;76.70;;;;;;5012150;28;20135;-68
2023/12/21 07:15:47;;;;;;;18.60;10.32;;;20.10;76.30;;;;;;5011614;28;20584;-67
2023/12/21 07:18:13;;;;;;;20.80;10.55;;;20.00;76.10;;;;;;5011996;28;20391;-67
2023/12/21 07:20:41;;;;;;;19.23;10.30;;;20.00;76.20;;;;;;5010727;28;20101;-69
2023/12/21 07:23:07;;;;;;;18.67;9.52;;;20.00;76.20;;;;;;5011928;28;20026;-68
2023/12/21 07:25:32;;;;;;;19.38;9.43;;;20.00;76.10;;;;;;5011918;28;20029;-69
2023/12/21 07:27:58;;;;;;;24.77;10.25;;;20.00;76.10;;;;;;5011851;28;20034;-67
2023/12/21 07:30:23;;;;;;;16.25;10.13;;;20.00;76.10;;;;;;5011798;28;20088;-68
2023/12/21 07:32:49;;;;;;;20.42;9.88;;;20.00;76.20;;;;;;5010960;28;20471;-68
2023/12/21 07:35:15;;;;;;;19.45;9.90;;;19.90;76.10;;;;;;5010753;28;20026;-68
2023/12/21 07:37:40;;;;;;;16.40;9.43;;;20.00;76.10;;;;;;5011080;28;20018;-68
2023/12/21 07:40:07;;;;;;;19.92;9.40;;;20.00;75.90;;;;;;5010671;28;20105;-69
2023/12/21 07:42:33;;;;;;;15.38;6.50;;;20.00;76.00;;;;;;5011103;28;20025;-65
2023/12/21 07:44:58;;;;;;;12.93;5.97;;;19.90;72.00;;;;;;5011011;28;20026;-65
2023/12/21 07:47:24;;;;;;;10.90;4.32;;;19.40;68.30;;;;;;5009535;28;20037;-65
2023/12/21 07:49:49;;;;;;;10.48;5.05;;;19.00;68.60;;;;;;5010961;28;20026;-65
2023/12/21 07:52:15;;;;;;;9.80;4.70;;;18.90;69.20;;;;;;5009376;28;20446;-65
2023/12/21 07:54:41;;;;;;;9.73;4.30;;;18.70;69.40;;;;;;5011387;28;20030;-65
2023/12/21 07:57:06;;;;;;;6.90;3.20;;;18.50;68.90;;;;;;5011590;28;20483;-64
2023/12/21 07:59:32;;;;;;;7.95;3.78;;;18.40;67.60;;;;;;5011275;28;20459;-64
2023/12/21 08:01:58;;;;;;;6.70;3.13;;;;;;;;;;5010378;28;20030;-64
2023/12/21 08:04:24;;;;;;;5.80;2.45;;;;;;;;;;5011660;28;20105;-63
2023/12/21 08:06:50;;;;;;;3.45;1.65;;;18.30;65.00;;;;;;5011379;28;20026;-64
2023/12/21 08:09:15;;;;;;;9.40;1.52;;;17.80;63.10;;;;;;5011209;28;20622;-63
2023/12/21 08:11:41;;;;;;;1.65;0.85;;;17.60;62.90;;;;;;5011120;28;20030;-64
2023/12/21 08:14:07;;;;;;;2.45;1.00;;;;;;;;;;5011462;28;20030;-64
2023/12/21 08:16:33;;;;;;;1.60;0.63;;;;;;;;;;5009319;28;20045;-64
2023/12/21 08:18:59;;;;;;;1.20;0.65;;;;;;;;;;5011410;28;20049;-64
2023/12/21 08:21:25;;;;;;;2.40;0.90;;;;;;;;;;5010761;28;20479;-64
2023/12/21 08:23:51;;;;;;;0.55;0.30;;;;;;;;;;5011450;28;20036;-63
2023/12/21 08:26:17;;;;;;;1.30;0.68;;;;;;;;;;5010191;28;20034;-64
2023/12/21 08:28:43;;;;;;;2.45;0.50;;;;;;;;;;5010246;28;20034;-64
2023/12/21 08:31:09;;;;;;;0.63;0.40;;;;;;;;;;5010302;28;20022;-64
2023/12/21 08:33:36;;;;;;;1.70;0.85;;;;;;;;;;5011498;28;20418;-64
2023/12/21 08:36:02;;;;;;;0.85;0.43;;;;;;;;;;5011333;28;20098;-62
2023/12/21 08:38:28;;;;;;;0.65;0.50;;;;;;;;;;5011211;28;20022;-64
2023/12/21 08:40:54;;;;;;;6.05;2.33;;;;;;;;;;5010998;28;20457;-66
2023/12/21 08:43:20;;;;;;;29.00;5.18;;;;;;;;;;5011196;28;20037;-68
2023/12/21 08:45:46;;;;;;;39.42;6.88;;;;;;;;;;5011965;28;20022;-66
2023/12/21 08:48:12;;;;;;;15.95;5.13;;;;;;;;;;5014275;28;20042;-67
2023/12/21 08:50:38;;;;;;;19.10;4.53;;;;;;;;;;5014428;28;20030;-67
2023/12/21 08:53:04;;;;;;;19.10;4.35;;;;;;;;;;5014633;28;20042;-67
2023/12/21 08:55:30;;;;;;;13.82;4.15;;;;;;;;;;5014489;28;20037;-67
2023/12/21 08:57:59;;;;;;;20.35;5.10;;;;;;;;;;5014558;28;20033;-67
2023/12/21 09:00:26;;;;;;;25.90;4.45;;;;;;;;;;5014459;28;20026;-68
2023/12/21 09:02:51;;;;;;;18.45;5.00;;;;;;;;;;5011842;28;20483;-67
2023/12/21 09:05:18;;;;;;;13.70;4.82;;;;;;;;;;5011061;28;20032;-67
2023/12/21 09:07:44;;;;;;;22.33;4.28;;;;;;;;;;5012397;28;20032;-67
2023/12/21 09:10:10;;;;;;;15.07;4.55;;;;;;;;;;5013684;28;20033;-67
2023/12/21 09:12:36;;;;;;;19.85;4.03;;;;;;;;;;5013603;28;20498;-66
2023/12/21 09:15:03;;;;;;;11.82;4.35;;;19.00;75.50;;;;;;5013452;28;20096;-67
2023/12/21 09:17:29;;;;;;;19.25;4.78;;;18.90;76.00;;;;;;5014543;28;20026;-68
2023/12/21 09:19:55;;;;;;;16.17;4.13;;;18.90;76.10;;;;;;5014316;28;20022;-68
2023/12/21 09:22:21;;;;;;;13.73;3.92;;;18.90;76.10;;;;;;5013615;28;20544;-68
2023/12/21 09:24:47;;;;;;;8.77;3.78;;;19.00;76.10;;;;;;5016529;28;20491;-69
2023/12/21 09:27:14;;;;;;;12.35;4.40;;;19.00;75.50;;;;;;5016735;28;20041;-69
2023/12/21 09:29:40;;;;;;;10.63;3.15;;;19.00;75.80;;;;;;5018681;28;20030;-68
2023/12/21 09:32:06;;;;;;;22.85;4.13;;;19.10;75.70;;;;;;5023833;28;20026;-68
2023/12/21 09:34:31;;;;;;;22.85;4.13;;;19.10;75.90;;;;;;5023061;28;20029;-67
2023/12/21 09:36:57;;;;;;;24.38;5.10;;;19.20;75.20;;;;;;5021341;28;20034;-67
2023/12/21 09:39:23;;;;;;;22.80;4.30;;;19.30;75.60;;;;;;5016656;28;20022;-67
2023/12/21 09:41:50;;;;;;;22.17;4.25;;;19.30;75.40;;;;;;5016111;28;20553;-66
2023/12/21 09:44:20;;;;;;;19.15;4.35;;;19.30;75.40;;;;;;5017234;28;20026;-66
2023/12/21 09:46:48;;;;;;;20.08;3.97;;;19.20;75.20;;;;;;5013703;28;20077;-67
2023/12/21 09:49:17;;;;;;;13.25;3.72;;;19.20;75.10;;;;;;5014429;28;20040;-67
2023/12/21 09:51:44;;;;;;;17.27;3.83;;;19.30;75.00;;;;;;5013323;28;20045;-66
2023/12/21 09:54:10;;;;;;;12.48;3.33;;;19.20;74.90;;;;;;5013124;28;20033;-67
2023/12/21 09:56:36;;;;;;;13.52;3.22;;;19.20;74.80;;;;;;5012911;28;20480;-66
2023/12/21 09:59:04;;;;;;;15.43;3.90;;;19.20;74.80;;;;;;5013103;28;20372;-66
2023/12/21 10:01:30;;;;;;;12.23;3.47;;;19.20;74.70;;;;;;5012949;28;20030;-66
2023/12/21 10:03:57;;;;;;;10.93;3.25;;;19.30;74.60;;;;;;5013311;28;20033;-66
2023/12/21 10:06:24;;;;;;;21.17;3.85;;;19.20;74.60;;;;;;5013315;28;20499;-67
2023/12/21 10:08:49;;;;;;;21.63;3.92;;;19.20;74.50;;;;;;5012955;28;20409;-66
2023/12/21 10:11:15;;;;;;;19.35;3.92;;;19.20;74.40;;;;;;5012858;28;20022;-66
2023/12/21 10:13:46;;;;;;;21.00;3.85;;;19.20;74.40;;;;;;5013345;28;20030;-67
2023/12/21 10:16:12;;;;;;;16.50;3.05;;;19.20;74.40;;;;;;5015250;28;20026;-67
2023/12/21 10:18:38;;;;;;;15.82;3.35;;;19.20;74.30;;;;;;5016759;28;20037;-67
2023/12/21 10:21:03;;;;;;;10.13;2.80;;;19.20;74.30;;;;;;5013161;28;20026;-66
2023/12/21 10:23:30;;;;;;;9.82;2.90;;;19.20;74.30;;;;;;5012948;28;20105;-67
2023/12/21 10:25:58;;;;;;;12.75;3.28;;;19.20;74.20;;;;;;5011217;28;20121;-67
2023/12/21 10:28:24;;;;;;;8.38;2.75;;;19.20;74.20;;;;;;5012635;28;20467;-68
2023/12/21 10:30:57;;;;;;;12.98;2.60;;;19.20;74.40;;;;;;5012415;28;20109;-69
2023/12/21 10:33:25;;;;;;;9.68;2.65;;;19.30;75.10;;;;;;5012513;28;20014;-67
2023/12/21 10:35:51;;;;;;;9.10;2.80;;;19.30;75.10;;;;;;5012276;28;20026;-68
2023/12/21 10:38:18;;;;;;;10.93;2.78;;;19.30;75.40;;;;;;5011174;28;20423;-67
2023/12/21 10:40:45;;;;;;;9.85;2.50;;;19.40;75.40;;;;;;5010884;28;20160;-67
2023/12/21 10:43:14;;;;;;;11.35;2.55;;;19.40;75.40;;;;;;5011067;28;20559;-67
2023/12/21 10:45:43;;;;;;;7.75;1.73;;;19.40;76.30;;;;;;5011256;28;20483;-67
2023/12/21 10:48:12;;;;;;;10.63;2.70;;;19.40;76.10;;;;;;5009875;28;20030;-67
2023/12/21 10:50:39;;;;;;;12.57;2.88;;;19.50;76.30;;;;;;5009456;28;20050;-67
2023/12/21 10:53:05;;;;;;;10.20;2.80;;;19.50;76.00;;;;;;5008744;28;20109;-67
2023/12/21 10:55:32;;;;;;;15.48;2.72;;;19.50;75.90;;;;;;5010751;28;20113;-67
2023/12/21 10:58:00;;;;;;;8.95;2.60;;;19.50;75.90;;;;;;5010877;28;20502;-67
2023/12/21 11:00:26;;;;;;;7.88;2.22;;;19.50;75.80;;;;;;5010883;28;20180;-67
2023/12/21 11:02:52;;;;;;;8.40;2.38;;;19.50;75.60;;;;;;5009491;28;20547;-67
2023/12/21 11:05:19;;;;;;;7.72;2.15;;;19.50;75.40;;;;;;5010809;28;20471;-67
2023/12/21 11:07:50;;;;;;;8.23;2.92;;;19.50;75.30;;;;;;5010403;28;20356;-68
2023/12/21 11:10:17;;;;;;;6.93;2.43;;;19.50;75.20;;;;;;5010043;28;20026;-68
2023/12/21 11:12:43;;;;;;;14.00;2.63;;;19.40;75.20;;;;;;5010543;28;20037;-68
2023/12/21 11:15:09;;;;;;;10.27;2.47;;;19.40;75.30;;;;;;5010518;28;20022;-68
2023/12/21 11:17:36;;;;;;;7.53;2.40;;;;;;;;;;5010609;28;20147;-68
2023/12/21 11:20:02;;;;;;;7.47;2.20;;;;;;;;;;5010135;28;20391;-67
2023/12/21 11:22:28;;;;;;;7.47;2.20;;;;;;;;;;5010504;28;20022;-68
2023/12/21 11:25:02;;;;;;;6.03;1.83;;;;;;;;;;5010434;28;20028;-68
2023/12/21 11:27:28;;;;;;;9.30;2.63;;;;;;;;;;5009573;28;20359;-68
2023/12/21 11:29:54;;;;;;;4.45;2.10;;;;;;;;;;5009569;28;20690;-68
2023/12/21 11:32:24;;;;;;;5.28;2.38;;;;;;;;;;5008146;28;20109;-68
2023/12/21 11:34:51;;;;;;;14.68;2.15;;;;;;;;;;5009602;28;20025;-68
2023/12/21 11:37:24;;;;;;;8.68;2.55;;;;;;;;;;5009799;28;20059;-69
2023/12/21 11:39:56;;;;;;;11.90;2.53;;;;;;;;;;5009768;28;20057;-69
2023/12/21 11:42:32;;;;;;;8.27;2.20;;;;;;;;;;5010449;28;20106;-69
2023/12/21 11:45:01;;;;;;;8.93;2.10;;;;;;;;;;5010615;28;20121;-70
2023/12/21 11:47:28;;;;;;;8.05;2.20;;;;;;;;;;5009988;28;20057;-66
2023/12/21 11:50:03;;;;;;;6.53;2.45;;;;;;;;;;5010504;28;20025;-70
2023/12/21 11:52:29;;;;;;;10.68;2.55;;;;;;;;;;5010326;28;20029;-68
2023/12/21 11:54:55;;;;;;;10.73;2.30;;;;;;;;;;5010475;28;20022;-68
2023/12/21 11:57:21;;;;;;;10.75;2.63;;;;;;;;;;5010575;28;20105;-68
2023/12/21 12:00:05;;;;;;;14.48;2.60;;;;;;;;;;5008662;28;20030;-69
2023/12/21 12:02:31;;;;;;;10.77;2.90;;;;;;;;;;5010272;28;20434;-68
2023/12/21 12:04:57;;;;;;;12.90;2.22;;;;;;;;;;5010297;28;20073;-68
2023/12/21 12:07:23;;;;;;;11.75;2.90;;;;;;;;;;5010357;28;20026;-69
2023/12/21 12:09:49;;;;;;;13.73;2.08;;;19.70;75.50;;;;;;5010231;28;20432;-68
2023/12/21 12:12:15;;;;;;;5.00;2.00;;;19.60;75.80;;;;;;5010132;28;20040;-68
2023/12/21 12:14:40;;;;;;;8.10;2.00;;;19.50;75.80;;;;;;5010319;28;20026;-68
2023/12/21 12:17:06;;;;;;;11.32;2.25;;;19.50;75.80;;;;;;5008978;28;20101;-71
2023/12/21 12:19:31;;;;;;;6.32;1.67;;;19.50;75.50;;;;;;5009261;28;20463;-70
2023/12/21 12:21:57;;;;;;;9.18;2.42;;;19.50;75.20;;;;;;5014383;28;20064;-71
2023/12/21 12:24:23;;;;;;;5.95;1.58;;;19.60;75.20;;;;;;5013966;28;20044;-67
2023/12/21 12:26:49;;;;;;;8.15;2.80;;;19.60;75.10;;;;;;5013566;28;20032;-67
2023/12/21 12:29:16;;;;;;;7.75;2.00;;;19.60;75.30;;;;;;5013696;28;20033;-70
2023/12/21 12:31:42;;;;;;;8.68;1.88;;;19.60;75.10;;;;;;5013815;28;20018;-70
2023/12/21 12:34:08;;;;;;;8.98;1.85;;;19.70;75.00;;;;;;5014053;28;20053;-70
2023/12/21 12:36:34;;;;;;;7.93;1.85;;;19.70;74.80;;;;;;5013983;28;20026;-69
2023/12/21 12:38:59;;;;;;;10.32;2.10;;;19.70;74.90;;;;;;5013575;28;20548;-69
2023/12/21 12:41:25;;;;;;;7.57;1.98;;;19.70;74.80;;;;;;5013283;28;20053;-69
2023/12/21 12:43:51;;;;;;;6.65;1.58;;;19.70;74.70;;;;;;5013662;28;20104;-69
2023/12/21 12:46:17;;;;;;;3.92;1.48;;;19.70;74.70;;;;;;5013877;28;20041;-69
2023/12/21 12:48:43;;;;;;;5.07;1.80;;;19.70;74.70;;;;;;5013425;28;20038;-70
2023/12/21 12:51:12;;;;;;;5.97;1.88;;;19.70;74.70;;;;;;5013210;28;20033;-71
2023/12/21 12:53:46;;;;;;;6.53;1.63;;;19.70;74.70;;;;;;5013069;28;20038;-73
2023/12/21 12:56:12;;;;;;;8.98;2.13;;;19.70;74.60;;;;;;5013154;28;20104;-73
2023/12/21 12:58:42;;;;;;;3.83;1.40;;;19.70;74.50;;;;;;5013229;28;20109;-73
2023/12/21 13:01:07;;;;;;;4.78;1.55;;;19.70;74.40;;;;;;5013193;28;20156;-74
2023/12/21 13:03:33;;;;;;;3.47;1.52;;;19.70;74.50;;;;;;5013040;28;20109;-74
2023/12/21 13:05:59;;;;;;;11.15;2.08;;;19.70;74.40;;;;;;5013159;28;20026;-71
2023/12/21 13:08:27;;;;;;;8.63;1.75;;;19.70;74.40;;;;;;5011405;28;20025;-71
2023/12/21 13:10:52;;;;;;;2.78;1.63;;;19.70;74.50;;;;;;5012922;28;20033;-73
2023/12/21 13:13:18;;;;;;;4.40;1.60;;;19.70;74.30;;;;;;5013165;28;20022;-73
2023/12/21 13:15:44;;;;;;;2.50;1.30;;;19.70;74.40;;;;;;5012705;28;20025;-69
2023/12/21 13:18:09;;;;;;;5.30;1.63;;;19.70;74.30;;;;;;5012870;28;20026;-69
2023/12/21 13:20:35;;;;;;;10.75;1.63;;;19.70;74.30;;;;;;5012211;28;20065;-69
2023/12/21 13:23:02;;;;;;;6.15;1.67;;;19.80;74.20;;;;;;5012511;28;20092;-69
2023/12/21 13:25:27;;;;;;;4.50;1.40;;;19.70;74.20;;;;;;5012660;28;20110;-70
2023/12/21 13:27:53;;;;;;;2.92;1.13;;;19.70;74.20;;;;;;5012203;28;20057;-69
2023/12/21 13:30:21;;;;;;;3.25;1.50;;;19.70;74.10;;;;;;5012240;28;20105;-68
2023/12/21 13:32:47;;;;;;;3.42;1.30;;;19.70;74.10;;;;;;5011727;28;20577;-69
2023/12/21 13:35:12;;;;;;;5.35;1.27;;;19.70;74.10;;;;;;5012444;28;20026;-69
2023/12/21 13:37:38;;;;;;;4.15;1.50;;;19.70;74.10;;;;;;5012679;28;20028;-69
2023/12/21 13:40:04;;;;;;;2.40;1.23;;;19.70;74.10;;;;;;5012902;28;20022;-72